Time;durP1;ratioP1;P1;durP2;ratioP2;P2;SDS_P1;SDS_P2;PMS_P1;PMS_P2;Temp;Humidity;BMP_temperature;BMP_pressure;BME280_temperature;BME280_humidity;BME280_pressure;Samples;Min_cycle;Max_cycle;Signal;HPM_P1;HPM_P2
2023/10/20 00:01:29;;;;;;;22.00;14.75;;;;;;;13.22;70.69;99241.84;5054371;27;101927;-78
2023/10/20 00:03:56;;;;;;;19.52;14.52;;;;;;;13.13;70.92;99241.53;5053757;27;96809;-78
2023/10/20 00:06:22;;;;;;;18.35;13.93;;;;;;;13.07;71.30;99241.09;5053088;27;98480;-78
2023/10/20 00:08:48;;;;;;;17.02;12.80;;;;;;;13.10;71.12;99241.72;5054440;27;99177;-80
2023/10/20 00:11:16;;;;;;;19.15;13.57;;;;;;;13.22;70.10;99236.56;5053694;27;99135;-80
2023/10/20 00:13:43;;;;;;;17.63;13.80;;;;;;;13.13;71.12;99243.34;5049386;27;96944;-80
2023/10/20 00:16:09;;;;;;;20.23;13.50;;;;;;;13.07;70.81;99236.63;5047080;27;97086;-80
2023/10/20 00:18:36;;;;;;;19.00;14.23;;;;;;;12.80;71.96;99238.53;5049085;27;98211;-80
2023/10/20 00:21:03;;;;;;;18.00;13.65;;;;;;;12.79;72.06;99239.50;5055394;27;97749;-81
2023/10/20 00:23:32;;;;;;;18.23;12.63;;;;;;;12.80;72.34;99246.47;5047318;27;97661;-78
2023/10/20 00:25:58;;;;;;;16.77;12.70;;;;;;;12.64;73.31;99236.09;5052420;27;97130;-78
2023/10/20 00:28:26;;;;;;;18.42;12.85;;;;;;;12.87;72.56;99236.31;5052022;27;101394;-78
2023/10/20 00:30:52;;;;;;;17.80;13.25;;;;;;;12.96;71.90;99235.69;5052482;27;98826;-78
2023/10/20 00:33:18;;;;;;;18.50;12.50;;;;;;;12.92;72.01;99229.75;5052564;27;96725;-78
2023/10/20 00:35:45;;;;;;;16.55;11.52;;;;;;;12.87;71.59;99221.25;5051285;27;96740;-78
2023/10/20 00:38:11;;;;;;;16.83;11.48;;;;;;;12.87;71.81;99223.91;5052399;27;98836;-78
2023/10/20 00:40:45;;;;;;;15.75;12.02;;;;;;;12.96;71.95;99223.28;5046557;27;97983;-78
2023/10/20 00:43:12;;;;;;;16.42;12.23;;;;;;;12.68;71.88;99218.16;5050965;27;96823;-78
2023/10/20 00:45:40;;;;;;;17.67;12.50;;;;;;;12.82;72.07;99223.38;5044744;27;97173;-77
2023/10/20 00:48:08;;;;;;;16.13;11.93;;;;;;;12.88;72.13;99222.94;5050795;27;99116;-76
2023/10/20 00:50:35;;;;;;;14.50;10.93;;;;;;;12.80;72.42;99214.66;5051353;27;101311;-77
2023/10/20 00:53:03;;;;;;;15.85;11.00;;;;;;;13.01;71.70;99207.88;5051616;27;97050;-78
2023/10/20 00:55:31;;;;;;;16.60;12.05;;;;;;;13.07;71.65;99201.31;5054492;27;96621;-78
2023/10/20 00:57:58;;;;;;;16.60;11.75;;;;;;;12.92;72.34;99200.59;5044620;27;97720;-79
2023/10/20 01:00:24;;;;;;;15.35;11.75;;;;;;;12.98;72.02;99192.22;5046593;27;99038;-78
2023/10/20 01:02:53;;;;;;;15.90;11.88;;;;;;;12.93;72.91;99194.31;5049810;27;96769;-77
2023/10/20 01:05:22;;;;;;;17.38;12.15;;;;;;;12.84;73.29;99194.13;5052469;27;96775;-78
2023/10/20 01:07:49;;;;;;;18.90;13.10;;;;;;;13.02;71.88;99198.13;5044288;27;99024;-78
2023/10/20 01:10:15;;;;;;;15.80;11.63;;;;;;;12.80;72.87;99203.25;5042454;27;99156;-78
2023/10/20 01:12:42;;;;;;;17.30;12.23;;;;;;;12.80;73.50;99196.13;5052655;27;96869;-79
2023/10/20 01:15:09;;;;;;;15.25;11.90;;;;;;;12.90;73.08;99193.69;5050317;27;97003;-78
2023/10/20 01:17:36;;;;;;;15.10;11.15;;;;;;;12.91;73.10;99198.03;5049611;27;99775;-78
2023/10/20 01:20:06;;;;;;;16.58;12.60;;;;;;;12.89;73.46;99208.75;5051699;27;100005;-78
2023/10/20 01:22:32;;;;;;;15.40;11.38;;;;;;;12.79;73.26;99223.59;5048015;27;96890;-78
2023/10/20 01:25:01;;;;;;;16.83;12.15;;;;;;;12.89;73.74;99213.19;5051963;27;96919;-78
2023/10/20 01:27:28;;;;;;;16.75;11.57;;;;;;;12.82;73.46;99194.22;5051382;27;98843;-78
2023/10/20 01:29:55;;;;;;;21.13;12.27;;;;;;;13.01;72.41;99186.69;5050083;27;99151;-83
2023/10/20 01:32:22;;;;;;;17.38;11.77;;;;;;;12.72;74.46;99196.66;5053237;27;96714;-82
2023/10/20 01:34:48;;;;;;;18.13;11.63;;;;;;;12.81;74.56;99195.16;5042326;27;96743;-83
2023/10/20 01:37:15;;;;;;;16.70;10.95;;;;;;;12.75;75.08;99192.94;5053453;27;97921;-83
2023/10/20 01:39:42;;;;;;;15.38;11.38;;;;;;;12.62;75.72;99195.59;5041852;27;98921;-82
2023/10/20 01:42:10;;;;;;;15.07;10.88;;;;;;;12.71;75.13;99180.88;5056739;27;96729;-82
2023/10/20 01:44:36;;;;;;;16.25;11.18;;;;;;;12.81;75.03;99181.91;5053094;27;96786;-82
2023/10/20 01:47:03;;;;;;;14.57;11.50;;;;;;;12.75;74.97;99185.84;5055608;27;102530;-79
2023/10/20 01:49:29;;;;;;;14.38;10.30;;;;;;;12.78;75.14;99174.19;5050280;27;99789;-78
2023/10/20 01:51:55;;;;;;;14.90;11.52;;;;;;;12.59;76.44;99169.31;5053254;27;100167;-78
2023/10/20 01:54:22;;;;;;;15.10;10.80;;;;;;;12.60;76.38;99159.56;5053119;27;96721;-78
2023/10/20 01:56:48;;;;;;;14.70;10.93;;;;;;;12.63;76.28;99167.28;5053016;27;99306;-78
2023/10/20 01:59:16;;;;;;;14.05;10.00;;;;;;;12.60;76.16;99170.97;5047192;27;99738;-78
2023/10/20 02:01:43;;;;;;;13.52;9.45;;;;;;;12.70;75.91;99171.22;5048583;27;96875;-79
2023/10/20 02:04:09;;;;;;;11.15;9.50;;;;;;;12.62;76.08;99174.38;5049233;27;96906;-79
2023/10/20 02:06:35;;;;;;;12.55;9.63;;;;;;;12.77;75.83;99170.69;5053424;27;99145;-78
2023/10/20 02:09:03;;;;;;;11.50;8.43;;;;;;;12.97;74.60;99169.31;5056810;27;101406;-79
2023/10/20 02:11:29;;;;;;;11.75;9.07;;;;;;;12.95;74.75;99173.00;5054172;27;96892;-80
2023/10/20 02:13:57;;;;;;;10.55;8.45;;;;;;;12.93;74.94;99162.50;5056504;27;97055;-79
2023/10/20 02:16:25;;;;;;;10.60;8.25;;;;;;;13.04;74.70;99167.06;5056413;27;97572;-81
2023/10/20 02:18:51;;;;;;;10.95;8.70;;;;;;;12.93;75.09;99170.44;5055852;27;99172;-80
2023/10/20 02:21:18;;;;;;;10.55;8.00;;;;;;;12.97;74.59;99169.31;5054053;27;96832;-80
2023/10/20 02:23:44;;;;;;;10.55;8.27;;;;;;;13.01;74.07;99160.16;5051862;27;96923;-80
2023/10/20 02:26:11;;;;;;;10.20;7.95;;;;;;;12.97;74.50;99157.84;5052105;27;97617;-79
2023/10/20 02:28:37;;;;;;;9.77;7.93;;;;;;;13.18;73.77;99153.72;5056896;27;99874;-79
2023/10/20 02:31:12;;;;;;;11.05;7.53;;;;;;;13.00;73.92;99147.00;5053104;27;98940;-80
2023/10/20 02:33:40;;;;;;;12.65;7.13;;;;;;;12.85;74.46;99151.59;5053874;27;96790;-80
2023/10/20 02:36:06;;;;;;;8.50;6.47;;;;;;;12.89;74.26;99144.28;5045868;27;97861;-82
2023/10/20 02:38:33;;;;;;;9.90;7.05;;;;;;;12.75;75.00;99139.94;5054594;27;98311;-80
2023/10/20 02:41:00;;;;;;;8.90;7.25;;;;;;;12.82;75.29;99145.66;5053897;27;97891;-83
2023/10/20 02:43:27;;;;;;;8.98;6.35;;;;;;;12.75;75.62;99134.63;5052203;27;96804;-75
2023/10/20 02:45:55;;;;;;;7.45;5.80;;;;;;;12.72;74.87;99129.56;5053000;27;98879;-76
2023/10/20 02:48:23;;;;;;;6.88;6.03;;;;;;;12.84;74.85;99136.66;5054702;27;98959;-76
2023/10/20 02:50:51;;;;;;;8.52;5.65;;;;;;;12.76;74.69;99118.63;5051148;27;97010;-76
2023/10/20 02:53:18;;;;;;;6.13;4.75;;;;;;;12.60;74.37;99119.81;5048995;27;97630;-76
2023/10/20 02:55:45;;;;;;;7.20;5.00;;;;;;;12.69;74.73;99112.06;5052744;27;99596;-76
2023/10/20 02:58:12;;;;;;;6.20;5.10;;;;;;;12.69;74.98;99111.22;5055866;27;100570;-81
2023/10/20 03:00:42;;;;;;;6.45;5.05;;;;;;;12.73;75.09;99118.00;5046780;27;96806;-79
2023/10/20 03:03:09;;;;;;;5.75;5.05;;;;;;;12.59;74.90;99129.56;5055440;27;97763;-80
2023/10/20 03:05:35;;;;;;;7.00;5.00;;;;;;;12.73;73.74;99112.72;5049397;27;97921;-80
2023/10/20 03:08:03;;;;;;;6.35;5.30;;;;;;;12.55;74.93;99124.56;5052582;27;99007;-82
2023/10/20 03:10:30;;;;;;;5.30;4.60;;;;;;;12.48;75.00;99110.03;5049994;27;96866;-80
2023/10/20 03:12:56;;;;;;;6.35;4.93;;;;;;;12.50;75.04;99113.44;5053715;27;97560;-80
2023/10/20 03:15:23;;;;;;;7.53;5.32;;;;;;;12.51;75.18;99110.69;5054028;27;99087;-80
2023/10/20 03:17:49;;;;;;;6.85;5.10;;;;;;;12.40;75.79;99107.09;5053936;27;98821;-76
2023/10/20 03:20:17;;;;;;;5.43;4.82;;;;;;;12.48;75.44;99097.66;5052170;27;99145;-79
2023/10/20 03:22:44;;;;;;;10.05;4.72;;;;;;;12.47;74.80;99103.88;5057257;27;96881;-78
2023/10/20 03:25:11;;;;;;;6.82;4.78;;;;;;;12.32;75.36;99103.16;5047351;27;98924;-78
2023/10/20 03:27:38;;;;;;;6.38;5.05;;;;;;;12.33;75.20;99096.06;5054460;27;98925;-78
2023/10/20 03:30:06;;;;;;;6.75;4.45;;;;;;;12.35;74.69;99094.16;5053468;27;96818;-78
2023/10/20 03:32:32;;;;;;;6.35;4.63;;;;;;;12.26;74.67;99093.00;5050697;27;96852;-78
2023/10/20 03:34:59;;;;;;;8.40;4.10;;;;;;;12.17;74.62;99090.97;5054107;27;102128;-77
2023/10/20 03:37:25;;;;;;;8.60;4.63;;;;;;;12.32;74.49;99094.38;5042496;27;98840;-78
2023/10/20 03:39:52;;;;;;;7.43;4.43;;;;;;;12.31;74.29;99080.28;5047858;27;96798;-77
2023/10/20 03:42:21;;;;;;;5.88;4.38;;;;;;;12.48;73.54;99089.69;5051590;27;97738;-77
2023/10/20 03:44:48;;;;;;;6.72;4.63;;;;;;;12.46;73.35;99083.69;5050465;27;99510;-78
2023/10/20 03:47:15;;;;;;;5.97;4.68;;;;;;;12.49;72.64;99087.91;5051886;27;98984;-78
2023/10/20 03:49:43;;;;;;;6.07;4.68;;;;;;;12.31;73.08;99087.38;5051045;27;96731;-78
2023/10/20 03:52:11;;;;;;;5.95;4.50;;;;;;;12.25;73.83;99079.84;5048036;27;97325;-79
2023/10/20 03:54:38;;;;;;;7.85;4.40;;;;;;;12.30;73.54;99075.94;5046903;27;101713;-78
2023/10/20 03:57:05;;;;;;;7.05;5.07;;;;;;;12.44;72.92;99074.13;5051788;27;101951;-78
2023/10/20 03:59:34;;;;;;;5.70;4.75;;;;;;;12.22;73.00;99066.81;5052269;27;96647;-78
2023/10/20 04:02:01;;;;;;;6.30;4.38;;;;;;;12.15;73.84;99061.09;5049710;27;96919;-78
2023/10/20 04:04:27;;;;;;;6.72;4.63;;;;;;;12.25;73.18;99058.66;5051317;27;99246;-78
2023/10/20 04:06:54;;;;;;;5.97;4.60;;;;;;;12.17;73.60;99051.25;5050309;27;98799;-78
2023/10/20 04:09:20;;;;;;;5.43;4.75;;;;;;;12.42;72.44;99039.78;5051831;27;96983;-78
2023/10/20 04:11:48;;;;;;;7.63;4.60;;;;;;;12.57;71.73;99043.19;5050120;27;97148;-78
2023/10/20 04:14:15;;;;;;;6.28;4.55;;;;;;;12.30;72.48;99053.91;5053684;27;99100;-78
2023/10/20 04:16:45;;;;;;;5.88;4.95;;;;;;;12.31;72.62;99047.66;5052732;27;98740;-78
2023/10/20 04:19:14;;;;;;;8.40;5.07;;;;;;;12.35;71.92;99049.97;5052718;27;96755;-78
2023/10/20 04:21:43;;;;;;;7.38;4.80;;;;;;;12.47;71.43;99037.66;5050078;27;96817;-75
2023/10/20 04:24:10;;;;;;;6.28;4.97;;;;;;;12.44;71.66;99032.59;5052291;27;100999;-75
2023/10/20 04:26:37;;;;;;;6.18;4.90;;;;;;;12.23;72.25;99034.94;5050626;27;100742;-74
2023/10/20 04:29:23;;;;;;;7.57;5.55;;;;;;;12.45;71.39;99031.66;5049065;27;97117;-76
2023/10/20 04:43:34;;;;;;;7.38;5.45;;;;;;;11.91;73.11;99015.13;5050858;27;96907;-79
2023/10/20 04:51:45;;;;;;;8.30;5.32;;;;;;;12.13;72.65;99017.16;5048675;27;96945;-80
2023/10/20 04:54:19;;;;;;;7.63;5.33;;;;;;;12.21;71.52;99022.75;5041667;27;98760;-80
2023/10/20 04:57:18;;;;;;;8.38;5.10;;;;;;;12.12;71.84;99032.19;5043258;27;99422;-80
2023/10/20 04:59:33;;;;;;;9.77;5.57;;;;;;;12.05;71.78;99033.56;5039887;27;98583;-81
2023/10/20 05:02:07;;;;;;;6.70;5.25;;;;;;;12.02;72.39;99039.03;5036063;27;96836;-80
2023/10/20 05:04:37;;;;;;;7.38;5.13;;;;;;;12.11;72.14;99034.94;5049169;27;96881;-80
2023/10/20 05:07:06;;;;;;;7.38;5.00;;;;;;;12.04;71.74;99037.16;5043766;27;99380;-80
2023/10/20 05:09:35;;;;;;;7.32;5.10;;;;;;;12.10;71.67;99027.94;5042374;27;99300;-79
2023/10/20 05:12:02;;;;;;;7.55;5.47;;;;;;;12.21;71.17;99031.53;5049426;27;96866;-80
2023/10/20 05:14:28;;;;;;;9.43;5.40;;;;;;;12.02;71.49;99023.16;5046220;27;96814;-79
2023/10/20 05:16:55;;;;;;;7.80;5.68;;;;;;;12.16;71.22;99019.56;5054578;27;98934;-81
2023/10/20 05:19:21;;;;;;;7.78;5.78;;;;;;;12.15;71.79;99031.97;5053644;27;99121;-80
2023/10/20 05:21:49;;;;;;;10.25;6.07;;;;;;;12.30;70.49;99041.50;5048196;27;97129;-80
2023/10/20 05:24:15;;;;;;;10.85;5.55;;;;;;;12.25;70.71;99033.03;5056557;27;96788;-79
2023/10/20 05:26:45;;;;;;;8.20;5.75;;;;;;;12.04;71.41;99039.81;5049957;27;97635;-80
2023/10/20 05:29:14;;;;;;;9.55;6.45;;;;;;;12.00;71.67;99030.38;5044259;27;99193;-79
2023/10/20 05:31:40;;;;;;;9.45;6.45;;;;;;;12.03;71.77;99031.97;5049328;27;97069;-80
2023/10/20 05:34:06;;;;;;;8.00;6.22;;;;;;;11.91;72.30;99039.78;5049791;27;96690;-79
2023/10/20 05:36:33;;;;;;;9.57;6.30;;;;;;;12.05;72.21;99038.00;5045660;27;99221;-80
2023/10/20 05:39:01;;;;;;;12.00;6.78;;;;;;;12.13;71.64;99048.94;5048581;27;98792;-80
2023/10/20 05:41:29;;;;;;;10.95;6.70;;;;;;;12.24;71.37;99041.94;5049728;27;96892;-80
2023/10/20 05:43:56;;;;;;;12.95;6.47;;;;;;;12.19;70.62;99038.75;5055641;27;96799;-81
2023/10/20 05:46:22;;;;;;;9.48;6.97;;;;;;;12.12;70.95;99036.63;5055349;27;98850;-80
2023/10/20 05:48:49;;;;;;;10.25;6.72;;;;;;;12.30;70.85;99030.91;5054152;27;99090;-79
2023/10/20 05:51:15;;;;;;;10.73;7.07;;;;;;;12.22;70.54;99027.94;5055663;27;96911;-79
2023/10/20 05:53:42;;;;;;;15.77;6.93;;;;;;;12.09;70.87;99018.28;5053935;27;96775;-79
2023/10/20 05:56:10;;;;;;;10.15;7.30;;;;;;;12.03;71.64;99008.13;5057002;27;98927;-79
2023/10/20 05:58:37;;;;;;;10.43;7.07;;;;;;;12.07;71.74;99001.69;5056392;27;97686;-79
2023/10/20 06:01:05;;;;;;;10.80;7.10;;;;;;;12.00;71.60;99005.72;5055412;27;96699;-80
2023/10/20 06:03:31;;;;;;;10.45;7.32;;;;;;;11.96;72.07;99007.69;5055465;27;98745;-78
2023/10/20 06:05:59;;;;;;;10.85;7.30;;;;;;;11.82;72.22;98997.22;5055216;27;98671;-80
2023/10/20 06:08:27;;;;;;;12.00;7.82;;;;;;;11.68;72.72;99005.22;5049424;27;100685;-80
2023/10/20 06:10:53;;;;;;;13.50;7.78;;;;;;;11.43;73.88;98995.41;5043585;27;101960;-78
2023/10/20 06:13:25;;;;;;;13.63;7.40;;;;;;;11.34;74.32;98994.25;5041138;27;96826;-80
2023/10/20 06:15:51;;;;;;;13.30;8.25;;;;;;;11.53;74.08;98986.78;5051510;27;100693;-79
2023/10/20 06:18:18;;;;;;;13.55;7.65;;;;;;;11.60;73.51;98968.69;5044396;27;97983;-80
2023/10/20 06:20:44;;;;;;;11.52;7.93;;;;;;;11.65;72.99;98986.91;5043970;27;96673;-80
2023/10/20 06:23:11;;;;;;;13.52;8.10;;;;;;;11.71;73.05;98999.72;5043894;27;96891;-80
2023/10/20 06:25:37;;;;;;;11.07;6.95;;;;;;;11.76;72.94;99008.22;5055552;27;98155;-81
2023/10/20 06:28:04;;;;;;;11.23;7.95;;;;;;;11.87;71.90;99011.84;5047392;27;98883;-80
2023/10/20 06:30:33;;;;;;;13.88;8.50;;;;;;;11.98;72.11;99011.94;5042172;27;96679;-78
2023/10/20 06:33:16;;;;;;;14.45;7.78;;;;;;;11.82;72.09;99018.38;5038709;27;97012;-78
2023/10/20 06:35:50;;;;;;;11.85;6.93;;;;;;;11.82;71.85;99000.69;5042645;27;99382;-78
2023/10/20 06:38:19;;;;;;;12.88;7.85;;;;;;;11.77;71.79;98997.53;5042575;27;99250;-78
2023/10/20 06:40:47;;;;;;;12.95;7.85;;;;;;;11.88;71.31;98988.88;5047392;27;96818;-77
2023/10/20 06:43:13;;;;;;;13.98;7.93;;;;;;;11.67;72.08;98977.06;5043622;27;97465;-78
2023/10/20 06:45:41;;;;;;;16.83;8.00;;;;;;;11.92;71.56;98985.91;5044383;27;99399;-79
2023/10/20 06:48:09;;;;;;;13.40;8.65;;;;;;;11.84;72.00;98977.63;5048021;27;100753;-79
2023/10/20 06:50:36;;;;;;;14.13;8.73;;;;;;;11.89;71.67;98959.63;5044258;27;96818;-79
2023/10/20 06:53:05;;;;;;;15.65;8.10;;;;;;;11.84;72.49;98952.97;5044823;27;97086;-79
2023/10/20 06:55:31;;;;;;;15.45;8.30;;;;;;;11.91;71.79;98954.25;5049562;27;99251;-80
2023/10/20 06:57:58;;;;;;;12.88;8.65;;;;;;;11.84;71.64;98955.63;5049357;27;100231;-79
2023/10/20 07:00:24;;;;;;;14.13;8.30;;;;;;;11.87;71.74;98955.41;5042029;27;96890;-80
2023/10/20 07:02:52;;;;;;;15.70;8.25;;;;;;;11.96;71.11;98946.81;5047723;27;97227;-78
2023/10/20 07:05:18;;;;;;;18.88;9.00;;;;;;;11.93;71.84;98944.41;5048098;27;98348;-79
2023/10/20 07:07:44;;;;;;;15.82;7.75;;;;;;;11.87;71.29;98955.41;5045616;27;100322;-79
2023/10/20 07:10:11;;;;;;;13.40;7.65;;;;;;;11.85;71.55;98949.38;5041425;27;97277;-80
2023/10/20 07:12:38;;;;;;;13.40;7.35;;;;;;;11.80;71.78;98956.78;5049132;27;97339;-78
2023/10/20 07:15:06;;;;;;;11.93;7.25;;;;;;;11.75;72.40;98943.03;5045315;27;101542;-79
2023/10/20 07:17:32;;;;;;;12.32;8.18;;;;;;;11.72;72.52;98932.63;5049016;27;99385;-79
2023/10/20 07:20:00;;;;;;;10.90;7.70;;;;;;;11.90;72.35;98936.66;5047161;27;96894;-79
2023/10/20 07:22:28;;;;;;;12.23;8.10;;;;;;;11.70;72.40;98930.06;5043896;27;98111;-76
2023/10/20 07:24:55;;;;;;;12.90;7.90;;;;;;;11.72;72.77;98919.38;5046473;27;99718;-76
2023/10/20 07:27:22;;;;;;;13.80;7.63;;;;;;;11.61;72.84;98898.13;5048606;27;98930;-76
2023/10/20 07:29:48;;;;;;;13.25;8.15;;;;;;;11.65;73.17;98908.38;5044221;27;96918;-76
2023/10/20 07:32:14;;;;;;;12.95;8.68;;;;;;;11.71;73.30;98915.03;5049064;27;97196;-76
2023/10/20 07:34:41;;;;;;;12.40;7.75;;;;;;;11.66;72.58;98925.94;5043536;27;99053;-75
2023/10/20 07:37:08;;;;;;;12.48;8.57;;;;;;;11.43;73.00;98930.16;5045398;27;99169;-75
2023/10/20 07:39:35;;;;;;;13.02;8.35;;;;;;;11.24;73.82;98932.34;5043343;27;97478;-74
2023/10/20 07:42:02;;;;;;;10.13;7.50;;;;;;;11.25;74.27;98925.25;5047712;27;96778;-76
2023/10/20 07:44:28;;;;;;;11.43;7.65;;;;;;;11.40;73.21;98914.50;5046491;27;101535;-75
2023/10/20 07:46:55;;;;;;;15.52;7.88;;;;;;;11.06;74.81;98907.97;5046813;27;99142;-76
2023/10/20 07:49:21;;;;;;;13.43;7.82;;;;;;;11.30;73.99;98902.84;5047407;27;96722;-76
2023/10/20 07:51:48;;;;;;;11.30;7.38;;;;;;;11.13;74.17;98895.19;5043846;27;97401;-76
2023/10/20 07:54:16;;;;;;;12.93;7.70;;;;;;;11.31;73.46;98895.75;5044830;27;99145;-77
2023/10/20 07:56:43;;;;;;;10.68;7.30;;;;;;;11.41;73.25;98900.34;5048300;27;97899;-76
2023/10/20 07:59:10;;;;;;;11.82;7.35;;;;;;;11.40;72.70;98887.22;5047858;27;97254;-75
2023/10/20 08:01:37;;;;;;;11.73;7.05;;;;;;;11.14;73.38;98883.69;5044765;27;98528;-74
2023/10/20 08:04:03;;;;;;;14.98;7.05;;;;;;;10.95;74.63;98878.78;5039181;27;99508;-74
2023/10/20 08:06:30;;;;;;;10.88;7.30;;;;;;;11.16;74.58;98871.19;5039325;27;99606;-77
2023/10/20 08:08:56;;;;;;;12.23;7.57;;;;;;;11.48;73.35;98877.81;5042171;27;96834;-78
2023/10/20 08:11:24;;;;;;;11.02;7.20;;;;;;;11.42;72.41;98862.34;5037550;27;97933;-79
2023/10/20 08:13:51;;;;;;;10.45;7.13;;;;;;;11.35;72.92;98861.09;5046542;27;98900;-79
2023/10/20 08:16:21;;;;;;;12.38;7.43;;;;;;;11.24;73.40;98862.75;5044945;27;99180;-79
2023/10/20 08:18:47;;;;;;;10.35;7.07;;;;;;;11.36;72.49;98862.75;5042006;27;96992;-79
2023/10/20 08:21:15;;;;;;;11.80;7.20;;;;;;;11.34;72.48;98874.41;5043641;27;96915;-79
2023/10/20 08:23:42;;;;;;;11.38;7.00;;;;;;;11.44;72.57;98865.72;5045917;27;98952;-79
2023/10/20 08:26:14;;;;;;;13.52;6.68;;;;;;;11.32;72.48;98876.28;5041951;27;99602;-79
2023/10/20 08:28:42;;;;;;;12.30;5.93;;;;;;;11.27;72.83;98870.47;5044831;27;97353;-79
2023/10/20 08:31:12;;;;;;;9.90;7.15;;;;;;;11.29;72.52;98866.75;5044990;27;97192;-79
2023/10/20 08:33:39;;;;;;;9.40;6.40;;;;;;;11.40;71.66;98880.13;5036380;27;98904;-80
2023/10/20 08:36:11;;;;;;;8.52;5.90;;;;;;;11.45;71.72;98890.38;5042167;27;98768;-76
2023/10/20 08:38:37;;;;;;;7.85;5.20;;;;;;;11.40;71.49;98877.47;5043193;27;96721;-74
2023/10/20 08:41:09;;;;;;;8.43;5.22;;;;;;;11.24;71.72;98900.59;5035204;27;97037;-75
2023/10/20 08:43:36;;;;;;;10.55;5.53;;;;;;;11.29;72.15;98902.97;5033285;27;98847;-77
2023/10/20 08:46:05;;;;;;;7.53;5.60;;;;;;;11.35;71.66;98892.81;5041634;27;98801;-75
2023/10/20 08:48:32;;;;;;;9.27;5.47;;;;;;;11.16;72.49;98889.69;5045371;27;96779;-76
2023/10/20 08:51:00;;;;;;;10.23;5.68;;;;;;;11.36;72.50;98885.69;5036929;27;97039;-75
2023/10/20 08:53:27;;;;;;;8.48;5.75;;;;;;;11.58;71.35;98888.59;5050181;27;98928;-76
2023/10/20 08:55:53;;;;;;;9.63;5.97;;;;;;;11.70;70.41;98869.22;5030419;27;99193;-75
2023/10/20 08:58:21;;;;;;;8.25;5.45;;;;;;;11.53;70.95;98862.47;5043752;27;102046;-76
2023/10/20 09:00:47;;;;;;;8.63;5.80;;;;;;;11.52;71.36;98866.06;5044511;27;97007;-75
2023/10/20 09:03:15;;;;;;;9.45;5.85;;;;;;;11.32;71.98;98868.38;5039801;27;99287;-75
2023/10/20 09:05:41;;;;;;;10.63;5.82;;;;;;;11.58;71.13;98870.06;5045243;27;99360;-75
2023/10/20 09:08:07;;;;;;;8.63;5.72;;;;;;;11.64;70.91;98871.44;5040884;27;98734;-75
2023/10/20 09:10:34;;;;;;;10.25;7.35;;;;;;;11.60;71.47;98876.09;5043923;27;97258;-76
2023/10/20 09:13:01;;;;;;;9.40;5.72;;;;;;;11.73;70.61;98873.47;5042170;27;98158;-77
2023/10/20 09:15:30;;;;;;;13.50;5.90;;;;;;;11.68;70.83;98875.59;5034914;27;98972;-77
2023/10/20 09:17:56;;;;;;;8.90;5.93;;;;;;;11.75;70.64;98864.47;5043867;27;97319;-75
2023/10/20 09:20:24;;;;;;;8.90;5.57;;;;;;;11.59;70.64;98869.97;5039993;27;97250;-75
2023/10/20 09:22:50;;;;;;;8.50;5.78;;;;;;;11.70;70.77;98855.13;5042375;27;98700;-75
2023/10/20 09:25:17;;;;;;;8.82;5.97;;;;;;;11.53;71.00;98848.38;5038386;27;101029;-74
2023/10/20 09:27:43;;;;;;;10.52;6.00;;;;;;;11.68;70.87;98849.97;5038622;27;97399;-74
2023/10/20 09:30:10;;;;;;;9.45;5.97;;;;;;;11.69;70.98;98849.00;5039953;27;96882;-75
2023/10/20 09:32:37;;;;;;;8.30;5.30;;;;;;;11.62;70.78;98853.03;5044704;27;99818;-75
2023/10/20 09:35:04;;;;;;;11.98;6.57;;;;;;;11.46;71.89;98845.31;5041819;27;99129;-75
2023/10/20 09:37:32;;;;;;;7.43;5.60;;;;;;;11.37;71.76;98835.38;5042494;27;96752;-75
2023/10/20 09:40:06;;;;;;;9.35;5.43;;;;;;;11.51;71.72;98832.63;5042388;27;99478;-75
2023/10/20 09:42:44;;;;;;;6.28;5.03;;;;;;;11.55;71.31;98831.44;5037606;27;99193;-75
2023/10/20 09:45:16;;;;;;;8.07;4.93;;;;;;;11.51;71.36;98815.91;5041026;27;98939;-76
2023/10/20 09:47:45;;;;;;;6.57;4.95;;;;;;;11.46;71.82;98821.53;5041666;27;96863;-75
2023/10/20 09:50:12;;;;;;;8.65;5.43;;;;;;;11.48;71.59;98813.47;5037841;27;98042;-76
2023/10/20 09:52:41;;;;;;;7.00;5.32;;;;;;;11.63;71.19;98822.97;5041990;27;98219;-76
2023/10/20 09:55:11;;;;;;;9.48;5.45;;;;;;;11.59;71.67;98814.41;5041046;27;100320;-76
2023/10/20 09:57:37;;;;;;;6.47;4.65;;;;;;;11.52;71.77;98809.66;5042127;27;96732;-76
2023/10/20 10:00:07;;;;;;;6.68;4.88;;;;;;;11.30;71.90;98794.44;5046052;27;97468;-75
2023/10/20 10:02:33;;;;;;;6.53;4.90;;;;;;;11.43;72.69;98797.06;5049110;27;99210;-76
2023/10/20 10:05:00;;;;;;;7.85;5.50;;;;;;;11.35;71.82;98799.41;5050058;27;98948;-76
2023/10/20 10:07:32;;;;;;;8.23;4.97;;;;;;;11.55;70.92;98801.53;5048251;27;96709;-75
2023/10/20 10:10:00;;;;;;;6.90;5.22;;;;;;;11.67;71.01;98798.00;5047093;27;96899;-76
2023/10/20 10:12:28;;;;;;;7.18;5.10;;;;;;;11.56;72.08;98803.19;5042604;27;100152;-76
2023/10/20 10:14:57;;;;;;;6.68;4.47;;;;;;;11.59;71.18;98806.47;5045009;27;99215;-76
2023/10/20 10:17:26;;;;;;;6.60;4.72;;;;;;;11.50;71.20;98796.53;5045076;27;97069;-76
2023/10/20 10:19:54;;;;;;;6.38;4.38;;;;;;;11.33;71.69;98791.59;5039831;27;97510;-75
2023/10/20 10:22:26;;;;;;;5.82;4.40;;;;;;;11.15;72.34;98795.50;5046958;27;99178;-74
2023/10/20 10:24:54;;;;;;;6.63;4.70;;;;;;;11.36;72.22;98793.16;5041893;27;100074;-75
2023/10/20 10:27:23;;;;;;;6.57;4.47;;;;;;;11.47;71.59;98795.91;5044890;27;97234;-76
2023/10/20 10:29:53;;;;;;;6.88;4.45;;;;;;;11.54;71.40;98803.31;5048161;27;98546;-76
2023/10/20 10:32:20;;;;;;;6.75;4.57;;;;;;;11.63;70.70;98791.22;5043932;27;99191;-77
2023/10/20 10:34:49;;;;;;;5.75;4.03;;;;;;;11.63;70.19;98801.81;5046785;27;99126;-75
2023/10/20 10:37:16;;;;;;;5.57;4.05;;;;;;;11.67;70.56;98807.75;5039744;27;97297;-76
2023/10/20 10:39:42;;;;;;;4.38;3.85;;;;;;;11.67;70.80;98797.16;5041455;27;96743;-77
2023/10/20 10:42:09;;;;;;;5.13;4.18;;;;;;;11.56;70.57;98798.75;5034853;27;101556;-76
2023/10/20 10:44:37;;;;;;;6.68;4.30;;;;;;;11.64;70.67;98781.50;5047647;27;98903;-77
2023/10/20 10:47:04;;;;;;;6.20;4.57;;;;;;;11.50;71.07;98785.09;5039785;27;96991;-77
2023/10/20 10:49:32;;;;;;;5.50;4.22;;;;;;;11.38;71.27;98783.31;5042496;27;96988;-76
2023/10/20 10:52:03;;;;;;;7.07;4.38;;;;;;;11.47;70.95;98780.91;5047894;27;97685;-77
2023/10/20 10:54:33;;;;;;;5.03;4.07;;;;;;;11.48;70.52;98782.59;5039026;27;98553;-77
2023/10/20 10:57:00;;;;;;;4.43;3.70;;;;;;;11.34;71.28;98769.50;5044476;27;96920;-76
2023/10/20 10:59:27;;;;;;;5.63;3.88;;;;;;;11.12;72.01;98775.41;5039676;27;97075;-77
2023/10/20 11:01:55;;;;;;;9.52;6.45;;;;;;;11.32;72.11;98766.09;5047824;27;99105;-76
2023/10/20 11:04:21;;;;;;;6.95;4.22;;;;;;;11.33;72.07;98773.06;5047553;27;98804;-76
2023/10/20 11:06:48;;;;;;;4.70;3.85;;;;;;;11.36;72.04;98783.44;5044736;27;97506;-75
2023/10/20 11:09:19;;;;;;;5.88;3.90;;;;;;;11.38;71.68;98796.53;5042208;27;97266;-78
2023/10/20 11:11:47;;;;;;;5.00;4.05;;;;;;;11.46;71.42;98788.94;5040156;27;98822;-77
2023/10/20 11:14:17;;;;;;;5.80;4.10;;;;;;;11.19;72.19;98789.03;5049957;27;98346;-77
2023/10/20 11:16:45;;;;;;;4.30;3.85;;;;;;;11.15;73.01;98785.78;5044562;27;97216;-76
2023/10/20 11:19:13;;;;;;;5.00;3.72;;;;;;;11.08;72.59;98792.44;5045047;27;98042;-77
2023/10/20 11:21:48;;;;;;;5.45;4.20;;;;;;;11.27;72.19;98797.31;5045512;27;97826;-76
2023/10/20 11:24:26;;;;;;;5.82;3.60;;;;;;;11.22;72.50;98790.66;5042113;27;98805;-77
2023/10/20 11:27:00;;;;;;;4.20;3.60;;;;;;;11.46;72.23;98789.78;5048746;27;97886;-77
2023/10/20 11:29:30;;;;;;;3.90;3.45;;;;;;;11.28;72.32;98792.88;5041766;27;98561;-77
2023/10/20 11:31:59;;;;;;;4.82;3.85;;;;;;;11.38;72.43;98785.97;5043485;27;99271;-77
2023/10/20 11:34:27;;;;;;;5.10;3.90;;;;;;;11.48;71.72;98795.81;5042339;27;99038;-77
2023/10/20 11:36:54;;;;;;;4.18;3.15;;;;;;;11.33;72.25;98788.94;5044867;27;96712;-77
2023/10/20 11:39:24;;;;;;;4.88;3.47;;;;;;;11.46;71.97;98797.72;5044392;27;96969;-76
2023/10/20 11:41:51;;;;;;;3.88;3.35;;;;;;;11.46;71.82;98799.50;5037576;27;101892;-77
2023/10/20 11:44:18;;;;;;;4.22;3.28;;;;;;;11.49;71.31;98800.13;5043031;27;100844;-77
2023/10/20 11:46:45;;;;;;;5.45;3.67;;;;;;;11.78;70.71;98797.28;5046065;27;97458;-78